Smoke Signal, Arizona
Current Conditions -  °F | °C
As of 6:53 PM on Tuesday 21 Oct 2014 (Local Time) from KGUP Reporting Station
Few Clouds Few Clouds  
Wind Chill: 15°   Ceiling: Unl
Heat Index: 15°   Visibility: 10mi
Dew Point:   Wind: 3mph
Humidity: 55%   Direction: 70°ENE
Pressure: 30.08"   Gusts: NA
Location:  36.1012°N, 109.584°W
Report Text: KGUP 220053Z AUTO 07003KT 10SM FEW065 15/06 A3008 RMK AO2 SLP121 T01500061
Loading
Personal Weather Stations






























Interactive Weather Map
Tropical Storm Tracking
New forecast layout! Learn more

10-Day Weather Forecast

Advertisements
Track Severe Weather on mobile